createdAt,value
2023-02-23T00:01:27.851Z,99439.00
2023-02-23T00:03:57.454Z,99442.28
2023-02-23T00:06:26.380Z,99445.63
2023-02-23T00:08:54.339Z,99437.53
2023-02-23T00:11:22.657Z,99446.38
2023-02-23T00:13:51.473Z,99434.53
2023-02-23T00:16:20.851Z,99445.09
2023-02-23T00:18:51.533Z,99446.97
2023-02-23T00:21:21.163Z,99436.31
2023-02-23T00:23:51.037Z,99438.22
2023-02-23T00:26:20.758Z,99441.00
2023-02-23T00:28:50.908Z,99442.63
2023-02-23T00:31:19.133Z,99431.19
2023-02-23T00:33:46.826Z,99437.28
2023-02-23T00:36:16.067Z,99431.34
2023-02-23T00:38:45.868Z,99439.16
2023-02-23T00:41:19.930Z,99434.00
2023-02-23T00:43:48.264Z,99430.38
2023-02-23T00:46:17.380Z,99436.66
2023-02-23T00:48:45.714Z,99429.34
2023-02-23T00:51:15.632Z,99437.78
2023-02-23T00:53:44.084Z,99432.66
2023-02-23T00:56:13.868Z,99434.34
2023-02-23T00:58:41.961Z,99436.84
2023-02-23T01:01:12.005Z,99439.69
2023-02-23T01:03:41.269Z,99433.34
2023-02-23T01:06:11.397Z,99437.00
2023-02-23T01:08:42.476Z,99430.59
2023-02-23T01:11:13.693Z,99436.00
2023-02-23T01:13:42.562Z,99433.16
2023-02-23T01:16:14.593Z,99426.28
2023-02-23T01:18:44.408Z,99430.59
2023-02-23T01:21:17.381Z,99432.31
2023-02-23T01:23:46.691Z,99431.63
2023-02-23T01:26:19.069Z,99433.34
2023-02-23T01:28:50.216Z,99430.06
2023-02-23T01:31:18.674Z,99429.09
2023-02-23T01:33:46.950Z,99429.19
2023-02-23T01:36:14.966Z,99426.53
2023-02-23T01:38:42.431Z,99429.00
2023-02-23T01:41:11.332Z,99430.16
2023-02-23T01:43:57.744Z,99422.16
2023-02-23T01:46:25.292Z,99422.25
2023-02-23T01:48:56.213Z,99425.00
2023-02-23T01:51:27.750Z,99424.13
2023-02-23T01:54:00.952Z,99422.50
2023-02-23T01:56:35.585Z,99425.94
2023-02-23T01:59:07.091Z,99425.00
2023-02-23T02:01:34.664Z,99429.09
2023-02-23T02:04:06.391Z,99422.34
2023-02-23T02:06:35.434Z,99422.16
2023-02-23T02:09:06.515Z,99426.34
2023-02-23T02:11:37.063Z,99421.22
2023-02-23T02:14:12.747Z,99415.88
2023-02-23T02:17:02.133Z,99416.38
2023-02-23T02:20:00.102Z,99416.13
2023-02-23T02:22:55.466Z,99412.03
2023-02-23T02:25:40.453Z,99412.03
2023-02-23T02:28:41.167Z,99406.59
2023-02-23T02:31:38.633Z,99411.69
2023-02-23T02:34:25.053Z,99415.28
2023-02-23T02:37:19.930Z,99402.47
2023-02-23T02:40:14.443Z,99405.06
2023-02-23T02:42:51.185Z,99407.03
2023-02-23T02:45:26.266Z,99407.19
2023-02-23T02:48:01.800Z,99411.16
2023-02-23T02:50:40.235Z,99404.19
2023-02-23T02:53:10.879Z,99405.31
2023-02-23T02:55:43.785Z,99403.59
2023-02-23T02:58:13.730Z,99404.97
2023-02-23T03:01:01.495Z,99399.53
2023-02-23T03:03:49.921Z,99401.34
2023-02-23T03:06:35.661Z,99404.78
2023-02-23T03:09:26.707Z,99401.53
2023-02-23T03:12:24.693Z,99406.00
2023-02-23T03:15:19.802Z,99399.03
2023-02-23T03:18:06.770Z,99406.00
2023-02-23T03:21:02.201Z,99407.78
2023-02-23T03:23:58.578Z,99407.09
2023-02-23T03:26:51.600Z,99410.47
2023-02-23T03:29:48.443Z,99403.59
2023-02-23T03:32:41.329Z,99397.56
2023-02-23T03:35:33.238Z,99412.78
2023-02-23T03:38:25.634Z,99404.97
2023-02-23T03:41:13.490Z,99414.34
2023-02-23T03:44:04.935Z,99403.50
2023-02-23T03:46:50.818Z,99417.59
2023-02-23T03:49:39.720Z,99414.94
2023-02-23T03:52:30.573Z,99412.22
2023-02-23T03:55:17.892Z,99413.38
2023-02-23T03:58:08.638Z,99412.34
2023-02-23T04:00:58.655Z,99414.69
2023-02-23T04:03:46.148Z,99407.97
2023-02-23T04:06:33.367Z,99419.56
2023-02-23T04:09:23.182Z,99414.41
2023-02-23T04:12:14.034Z,99414.59
2023-02-23T04:14:45.512Z,99420.75
2023-02-23T04:17:20.927Z,99423.44
2023-02-23T04:19:51.360Z,99418.78
2023-02-23T04:22:18.940Z,99428.69
2023-02-23T04:24:46.913Z,99424.56
2023-02-23T04:27:14.382Z,99428.47
2023-02-23T04:29:42.279Z,99424.06
2023-02-23T04:32:15.928Z,99425.56
2023-02-23T04:34:43.857Z,99425.94
2023-02-23T04:37:12.362Z,99429.09
2023-02-23T04:39:39.929Z,99429.78
2023-02-23T04:42:07.457Z,99429.53
2023-02-23T04:44:34.963Z,99437.16
2023-02-23T04:47:02.493Z,99433.63
2023-02-23T04:49:31.334Z,99429.31
2023-02-23T04:51:59.316Z,99430.25
2023-02-23T04:54:26.997Z,99436.78
2023-02-23T04:56:54.547Z,99430.91
2023-02-23T04:59:22.046Z,99430.66
2023-02-23T05:01:49.682Z,99435.09
2023-02-23T05:04:17.198Z,99431.47
2023-02-23T05:06:46.028Z,99433.66
2023-02-23T05:09:13.515Z,99434.84
2023-02-23T05:11:41.199Z,99431.94
2023-02-23T05:14:09.225Z,99435.38
2023-02-23T05:16:36.909Z,99436.41
2023-02-23T05:19:04.468Z,99447.31
2023-02-23T05:21:32.226Z,99444.13
2023-02-23T05:24:01.290Z,99441.22
2023-02-23T05:26:29.312Z,99443.03
2023-02-23T05:28:57.084Z,99435.56
2023-02-23T05:31:24.793Z,99444.56
2023-02-23T05:33:53.808Z,99442.66
2023-02-23T05:36:22.577Z,99445.69
2023-02-23T05:38:50.174Z,99443.09
2023-02-23T05:41:21.956Z,99451.69
2023-02-23T05:43:51.137Z,99447.22
2023-02-23T05:46:21.497Z,99452.63
2023-02-23T05:48:49.239Z,99445.56
2023-02-23T05:51:18.346Z,99450.06
2023-02-23T05:53:46.639Z,99449.97
2023-02-23T05:56:20.210Z,99452.19
2023-02-23T05:58:49.304Z,99445.69
2023-02-23T06:01:18.519Z,99453.00
2023-02-23T06:03:46.915Z,99451.88
2023-02-23T06:06:14.645Z,99450.00
2023-02-23T06:08:42.764Z,99456.06
2023-02-23T06:11:10.603Z,99458.03
2023-02-23T06:13:38.105Z,99452.44
2023-02-23T06:16:08.464Z,99453.00
2023-02-23T06:18:36.131Z,99467.25
2023-02-23T06:21:04.073Z,99464.59
2023-02-23T06:23:33.183Z,99463.56
2023-02-23T06:26:00.926Z,99466.31
2023-02-23T06:28:29.672Z,99469.91
2023-02-23T06:30:57.709Z,99470.69
2023-02-23T06:33:27.205Z,99469.03
2023-02-23T06:35:55.210Z,99469.38
2023-02-23T06:38:23.831Z,99467.66
2023-02-23T06:40:51.337Z,99478.38
2023-02-23T06:43:18.959Z,99477.22
2023-02-23T06:45:47.830Z,99480.47
2023-02-23T06:48:15.371Z,99490.06
2023-02-23T06:50:44.545Z,99486.97
2023-02-23T06:53:12.308Z,99492.91
2023-02-23T06:55:39.768Z,99498.00
2023-02-23T06:58:07.901Z,99496.41
2023-02-23T07:00:35.481Z,99500.31
2023-02-23T07:03:02.968Z,99502.81
2023-02-23T07:05:30.461Z,99510.81
2023-02-23T07:07:59.338Z,99509.00
2023-02-23T07:10:26.839Z,99513.47
2023-02-23T07:12:54.946Z,99509.31
2023-02-23T07:15:22.434Z,99517.78
2023-02-23T07:17:51.282Z,99516.97
2023-02-23T07:20:19.550Z,99522.47
2023-02-23T07:22:47.041Z,99520.44
2023-02-23T07:25:15.975Z,99522.16
2023-02-23T07:27:46.444Z,99524.91
2023-02-23T07:30:14.851Z,99526.72
2023-02-23T07:32:42.471Z,99530.47
2023-02-23T07:35:13.135Z,99529.34
2023-02-23T07:37:40.606Z,99531.25
2023-02-23T07:40:09.259Z,99535.56
2023-02-23T07:42:38.232Z,99529.31
2023-02-23T07:45:07.020Z,99526.44
2023-02-23T07:47:34.620Z,99530.91
2023-02-23T07:50:03.451Z,99534.72
2023-02-23T07:52:31.193Z,99539.63
2023-02-23T07:54:58.639Z,99540.19
2023-02-23T07:57:26.760Z,99537.34
2023-02-23T07:59:55.613Z,99538.69
2023-02-23T08:02:23.325Z,99537.44
2023-02-23T08:04:54.029Z,99553.28
2023-02-23T08:07:21.730Z,99549.25
2023-02-23T08:09:49.572Z,99552.31
2023-02-23T08:12:17.016Z,99547.78
2023-02-23T08:14:44.633Z,99554.75
2023-02-23T08:17:13.413Z,99559.13
2023-02-23T08:19:41.078Z,99557.25
2023-02-23T08:22:10.234Z,99558.75
2023-02-23T08:24:39.229Z,99560.25
2023-02-23T08:27:06.796Z,99564.94
2023-02-23T08:29:34.925Z,99565.94
2023-02-23T08:32:03.562Z,99565.72
2023-02-23T08:34:32.563Z,99574.59
2023-02-23T08:37:00.230Z,99566.81
2023-02-23T08:39:27.911Z,99572.59
2023-02-23T08:41:55.569Z,99576.69
2023-02-23T08:44:23.120Z,99572.59
2023-02-23T08:46:50.817Z,99570.91
2023-02-23T08:49:18.267Z,99579.50
2023-02-23T08:51:47.279Z,99579.66
2023-02-23T08:54:16.147Z,99587.34
2023-02-23T08:56:44.381Z,99582.50
2023-02-23T08:59:13.482Z,99581.47
2023-02-23T09:01:42.225Z,99586.25
2023-02-23T09:04:09.747Z,99590.47
2023-02-23T09:06:38.114Z,99584.84
2023-02-23T09:09:06.974Z,99590.78
2023-02-23T09:11:34.505Z,99594.84
2023-02-23T09:14:02.013Z,99590.06
2023-02-23T09:16:29.512Z,99597.84
2023-02-23T09:19:01.397Z,99599.56
2023-02-23T09:21:29.913Z,99598.84
2023-02-23T09:23:58.514Z,99604.72
2023-02-23T09:26:29.400Z,99602.28
2023-02-23T09:28:58.825Z,99602.38
2023-02-23T09:31:26.571Z,99605.97
2023-02-23T09:33:55.075Z,99608.31
2023-02-23T09:36:24.623Z,99612.88
2023-02-23T09:38:55.289Z,99615.56
2023-02-23T09:41:56.952Z,99619.06
2023-02-23T09:44:37.908Z,99620.22
2023-02-23T09:47:19.567Z,99616.63
2023-02-23T09:49:49.983Z,99618.44
2023-02-23T09:52:22.052Z,99617.56
2023-02-23T09:54:49.782Z,99619.25
2023-02-23T09:57:24.623Z,99625.13
2023-02-23T09:59:53.056Z,99630.13
2023-02-23T10:02:25.124Z,99621.97
2023-02-23T10:04:57.683Z,99626.81
2023-02-23T10:07:35.004Z,99626.97
2023-02-23T10:10:16.725Z,99634.13
2023-02-23T10:12:55.397Z,99634.13
2023-02-23T10:15:33.393Z,99634.59
2023-02-23T10:18:12.429Z,99634.91
2023-02-23T10:20:48.537Z,99631.28
2023-02-23T10:23:20.998Z,99634.44
2023-02-23T10:25:53.114Z,99650.56
2023-02-23T10:28:23.197Z,99651.75
2023-02-23T10:30:51.664Z,99654.31
2023-02-23T10:33:25.265Z,99648.28
2023-02-23T10:36:12.518Z,99647.91
2023-02-23T10:38:41.137Z,99648.59
2023-02-23T10:41:14.653Z,99649.53
2023-02-23T10:43:43.743Z,99655.75
2023-02-23T10:46:18.548Z,99647.75
2023-02-23T10:48:48.279Z,99645.94
2023-02-23T10:51:21.152Z,99660.69
2023-02-23T10:53:49.069Z,99649.72
2023-02-23T10:56:19.512Z,99656.28
2023-02-23T10:58:50.949Z,99654.53
2023-02-23T11:01:36.188Z,99651.22
2023-02-23T11:04:17.245Z,99653.47
2023-02-23T11:06:44.822Z,99641.22
2023-02-23T11:09:33.141Z,99655.97
2023-02-23T11:12:21.532Z,99649.09
2023-02-23T11:14:51.340Z,99648.84
2023-02-23T11:17:29.389Z,99652.28
2023-02-23T11:20:02.439Z,99656.84
2023-02-23T11:22:33.821Z,99657.69
2023-02-23T11:25:03.875Z,99656.97
2023-02-23T11:27:31.476Z,99668.97
2023-02-23T11:30:06.836Z,99652.97
2023-02-23T11:32:38.607Z,99659.56
2023-02-23T11:35:27.919Z,99657.88
2023-02-23T11:37:56.474Z,99657.69
2023-02-23T11:40:27.079Z,99656.69
2023-02-23T11:42:57.090Z,99653.13
2023-02-23T11:45:28.043Z,99651.66
2023-02-23T11:47:59.394Z,99654.00
2023-02-23T11:50:29.740Z,99665.59
2023-02-23T11:53:04.321Z,99658.50
2023-02-23T11:55:34.534Z,99655.75
2023-02-23T11:58:13.282Z,99658.50
2023-02-23T12:00:44.417Z,99660.69
2023-02-23T12:03:24.158Z,99658.75
2023-02-23T12:05:53.747Z,99663.66
2023-02-23T12:08:38.479Z,99659.66
2023-02-23T12:11:13.388Z,99661.31
2023-02-23T12:13:47.387Z,99664.09
2023-02-23T12:16:21.281Z,99662.41
2023-02-23T12:18:59.798Z,99654.75
2023-02-23T12:21:47.926Z,99653.06
2023-02-23T12:24:24.224Z,99649.66
2023-02-23T12:26:56.431Z,99644.06
2023-02-23T12:29:32.586Z,99636.94
2023-02-23T12:32:05.706Z,99645.84
2023-02-23T12:34:41.084Z,99644.53
2023-02-23T12:37:17.276Z,99645.50
2023-02-23T12:39:47.557Z,99659.09
2023-02-23T12:42:20.368Z,99656.81
2023-02-23T12:44:52.505Z,99653.38
2023-02-23T12:47:29.932Z,99652.91
2023-02-23T12:50:07.088Z,99656.38
2023-02-23T12:52:38.594Z,99655.44
2023-02-23T12:55:11.205Z,99659.75
2023-02-23T12:57:45.808Z,99662.41
2023-02-23T13:00:31.124Z,99662.31
2023-02-23T13:03:22.791Z,99659.56
2023-02-23T13:05:54.342Z,99660.50
2023-02-23T13:08:30.198Z,99664.47
2023-02-23T13:11:07.663Z,99656.72
2023-02-23T13:13:41.738Z,99662.34
2023-02-23T13:16:16.703Z,99666.13
2023-02-23T13:18:49.977Z,99666.22
2023-02-23T13:21:26.012Z,99663.47
2023-02-23T13:23:59.362Z,99659.41
2023-02-23T13:26:34.135Z,99664.28
2023-02-23T13:29:06.261Z,99663.06
2023-02-23T13:31:37.878Z,99661.81
2023-02-23T13:34:11.993Z,99665.50
2023-02-23T13:36:42.007Z,99660.19
2023-02-23T13:39:47.632Z,99665.56
2023-02-23T13:42:28.382Z,99671.00
2023-02-23T13:45:03.723Z,99676.38
2023-02-23T13:47:41.764Z,99677.28
2023-02-23T13:50:22.477Z,99674.13
2023-02-23T13:52:50.764Z,99671.47
2023-02-23T13:55:48.725Z,99672.25
2023-02-23T13:58:21.067Z,99676.34
2023-02-23T14:00:55.638Z,99682.63
2023-02-23T14:03:28.122Z,99684.13
2023-02-23T14:06:01.111Z,99682.91
2023-02-23T14:08:33.596Z,99679.00
2023-02-23T14:11:01.916Z,99684.75
2023-02-23T14:13:32.730Z,99677.63
2023-02-23T14:16:19.564Z,99680.84
2023-02-23T14:18:57.850Z,99680.66
2023-02-23T14:21:33.695Z,99680.38
2023-02-23T14:24:14.797Z,99678.63
2023-02-23T14:26:45.693Z,99677.88
2023-02-23T14:29:26.546Z,99685.84
2023-02-23T14:31:57.115Z,99681.88
2023-02-23T14:34:43.153Z,99676.94
2023-02-23T14:37:21.917Z,99683.59
2023-02-23T14:39:51.001Z,99674.19
2023-02-23T14:42:24.377Z,99680.38
2023-02-23T14:44:53.988Z,99679.66
2023-02-23T14:47:23.316Z,99671.44
2023-02-23T14:49:55.690Z,99680.28
2023-02-23T14:52:27.945Z,99679.44
2023-02-23T14:55:08.823Z,99688.22
2023-02-23T14:57:38.095Z,99687.28
2023-02-23T15:00:13.516Z,99688.13
2023-02-23T15:02:53.869Z,99689.69
2023-02-23T15:05:25.178Z,99692.44
2023-02-23T15:07:54.513Z,99696.22
2023-02-23T15:10:27.158Z,99700.44
2023-02-23T15:12:55.482Z,99696.84
2023-02-23T15:15:25.546Z,99696.34
2023-02-23T15:17:56.688Z,99703.69
2023-02-23T15:20:32.399Z,99695.34
2023-02-23T15:23:03.691Z,99702.25
2023-02-23T15:25:36.866Z,99696.63
2023-02-23T15:28:23.390Z,99693.22
2023-02-23T15:30:52.272Z,99701.13
2023-02-23T15:33:23.278Z,99700.72
2023-02-23T15:35:54.616Z,99694.78
2023-02-23T15:38:42.960Z,99692.69
2023-02-23T15:41:19.100Z,99693.34
2023-02-23T15:43:46.928Z,99700.41
2023-02-23T15:46:23.975Z,99693.22
2023-02-23T15:48:53.087Z,99696.84
2023-02-23T15:51:31.812Z,99699.31
2023-02-23T15:54:03.468Z,99693.84
2023-02-23T15:56:31.605Z,99695.47
2023-02-23T15:59:04.918Z,99691.88
2023-02-23T16:01:33.440Z,99697.66
2023-02-23T16:04:03.619Z,99694.78
2023-02-23T16:06:36.808Z,99697.06
2023-02-23T16:09:20.589Z,99687.00
2023-02-23T16:11:52.112Z,99681.53
2023-02-23T16:14:21.637Z,99679.78
2023-02-23T16:16:58.438Z,99687.94
2023-02-23T16:19:40.566Z,99683.84
2023-02-23T16:22:19.582Z,99686.50
2023-02-23T16:24:54.395Z,99687.59
2023-02-23T16:27:22.334Z,99679.25
2023-02-23T16:30:00.045Z,99686.94
2023-02-23T16:32:35.589Z,99687.00
2023-02-23T16:35:09.667Z,99686.94
2023-02-23T16:37:58.476Z,99685.13
2023-02-23T16:40:28.093Z,99683.13
2023-02-23T16:42:59.237Z,99679.66
2023-02-23T16:45:29.307Z,99679.44
2023-02-23T16:48:01.955Z,99685.13
2023-02-23T16:50:37.360Z,99679.66
2023-02-23T16:53:06.606Z,99674.25
2023-02-23T16:55:39.197Z,99685.06
2023-02-23T16:58:12.075Z,99686.94
2023-02-23T17:00:39.575Z,99681.53
2023-02-23T17:03:11.601Z,99682.53
2023-02-23T17:05:39.366Z,99682.41
2023-02-23T17:08:06.978Z,99685.28
2023-02-23T17:10:36.430Z,99690.59
2023-02-23T17:13:05.938Z,99690.81
2023-02-23T17:15:36.378Z,99693.56
2023-02-23T17:18:04.415Z,99697.22
2023-02-23T17:20:32.540Z,99701.47
2023-02-23T17:23:03.003Z,99698.97
2023-02-23T17:25:30.563Z,99700.59
2023-02-23T17:28:00.992Z,99703.56
2023-02-23T17:30:28.855Z,99709.88
2023-02-23T17:32:58.307Z,99714.03
2023-02-23T17:35:26.847Z,99711.75
2023-02-23T17:37:54.568Z,99712.56
2023-02-23T17:40:28.630Z,99705.28
2023-02-23T17:42:57.064Z,99712.69
2023-02-23T17:45:26.647Z,99717.91
2023-02-23T17:47:54.080Z,99711.88
2023-02-23T17:50:23.118Z,99720.28
2023-02-23T17:52:51.978Z,99715.78
2023-02-23T17:55:21.086Z,99723.41
2023-02-23T17:57:48.838Z,99721.59
2023-02-23T18:00:18.707Z,99722.38
2023-02-23T18:02:47.717Z,99719.78
2023-02-23T18:05:15.934Z,99722.22
2023-02-23T18:07:45.468Z,99723.59
2023-02-23T18:10:14.528Z,99723.38
2023-02-23T18:12:42.109Z,99718.13
2023-02-23T18:15:10.136Z,99727.03
2023-02-23T18:17:37.603Z,99720.41
2023-02-23T18:20:08.124Z,99724.09
2023-02-23T18:22:35.578Z,99720.41
2023-02-23T18:25:03.055Z,99723.25
2023-02-23T18:27:30.550Z,99715.75
2023-02-23T18:29:58.291Z,99722.66
2023-02-23T18:32:25.903Z,99720.13
2023-02-23T18:34:53.589Z,99727.03
2023-02-23T18:37:25.058Z,99731.50
2023-02-23T18:39:54.368Z,99728.91
2023-02-23T18:42:22.282Z,99726.09
2023-02-23T18:44:50.200Z,99730.66
2023-02-23T18:47:18.010Z,99726.03
2023-02-23T18:49:45.587Z,99736.63
2023-02-23T18:52:13.444Z,99737.34
2023-02-23T18:54:42.492Z,99738.19
2023-02-23T18:57:10.057Z,99731.41
2023-02-23T18:59:37.541Z,99735.69
2023-02-23T19:02:05.277Z,99731.56
2023-02-23T19:04:32.835Z,99727.75
2023-02-23T19:07:00.378Z,99727.47
2023-02-23T19:09:27.852Z,99726.31
2023-02-23T19:11:56.672Z,99727.09
2023-02-23T19:14:46.433Z,99724.25
2023-02-23T19:17:11.613Z,99727.84
2023-02-23T19:19:39.073Z,99725.25
2023-02-23T19:22:06.550Z,99731.28
2023-02-23T19:24:35.759Z,99733.97
2023-02-23T19:27:05.820Z,99725.81
2023-02-23T19:29:33.394Z,99728.47
2023-02-23T19:32:00.991Z,99727.72
2023-02-23T19:34:28.514Z,99727.44
2023-02-23T19:36:55.946Z,99728.19
2023-02-23T19:39:23.421Z,99731.78
2023-02-23T19:41:50.898Z,99725.69
2023-02-23T19:44:19.762Z,99716.06
2023-02-23T19:46:47.252Z,99716.91
2023-02-23T19:49:14.742Z,99716.06
2023-02-23T19:51:42.211Z,99713.31
2023-02-23T19:54:09.713Z,99714.41
2023-02-23T19:56:37.952Z,99713.59
2023-02-23T19:59:06.583Z,99720.69
2023-02-23T20:01:36.013Z,99718.13
2023-02-23T20:04:06.569Z,99717.28
2023-02-23T20:06:39.303Z,99727.09
2023-02-23T20:09:07.249Z,99725.59
2023-02-23T20:11:34.754Z,99721.34
2023-02-23T20:14:04.128Z,99734.44
2023-02-23T20:16:31.861Z,99721.63
2023-02-23T20:19:01.373Z,99725.72
2023-02-23T20:21:32.156Z,99727.66
2023-02-23T20:24:01.348Z,99721.25
2023-02-23T20:26:30.773Z,99729.75
2023-02-23T20:28:58.816Z,99728.66
2023-02-23T20:31:29.885Z,99732.06
2023-02-23T20:33:59.554Z,99728.94
2023-02-23T20:36:28.438Z,99724.44
2023-02-23T20:38:55.910Z,99723.34
2023-02-23T20:41:23.746Z,99725.88
2023-02-23T20:43:51.654Z,99724.88
2023-02-23T20:46:19.722Z,99725.00
2023-02-23T20:48:48.881Z,99727.59
2023-02-23T20:51:19.751Z,99720.41
2023-02-23T20:53:49.613Z,99721.34
2023-02-23T20:56:19.537Z,99719.47
2023-02-23T20:58:47.492Z,99724.00
2023-02-23T21:01:16.143Z,99725.16
2023-02-23T21:03:43.784Z,99712.78
2023-02-23T21:06:11.282Z,99716.22
2023-02-23T21:08:39.870Z,99716.91
2023-02-23T21:11:09.294Z,99714.16
2023-02-23T21:13:37.454Z,99713.16
2023-02-23T21:16:05.293Z,99719.31
2023-02-23T21:18:32.839Z,99707.97
2023-02-23T21:21:09.418Z,99701.69
2023-02-23T21:23:37.559Z,99708.19
2023-02-23T21:26:14.094Z,99702.66
2023-02-23T21:28:44.282Z,99705.38
2023-02-23T21:31:14.161Z,99706.75
2023-02-23T21:33:43.212Z,99698.41
2023-02-23T21:36:12.540Z,99696.03
2023-02-23T21:38:42.837Z,99695.03
2023-02-23T21:41:11.278Z,99698.28
2023-02-23T21:43:41.417Z,99699.00
2023-02-23T21:46:14.001Z,99701.53
2023-02-23T21:48:42.039Z,99707.28
2023-02-23T21:51:12.250Z,99700.16
2023-02-23T21:53:40.428Z,99698.13
2023-02-23T21:56:11.508Z,99705.38
2023-02-23T21:58:39.979Z,99699.44
2023-02-23T22:01:13.496Z,99709.03
2023-02-23T22:03:45.047Z,99710.03
2023-02-23T22:06:13.223Z,99699.41
2023-02-23T22:08:42.954Z,99702.41
2023-02-23T22:11:17.434Z,99701.25
2023-02-23T22:13:45.466Z,99696.38
2023-02-23T22:16:15.389Z,99698.38
2023-02-23T22:18:43.495Z,99707.03
2023-02-23T22:21:12.660Z,99701.47
2023-02-23T22:23:41.486Z,99707.59
2023-02-23T22:26:09.363Z,99704.69
2023-02-23T22:28:37.330Z,99708.75
2023-02-23T22:31:08.084Z,99702.47
2023-02-23T22:33:37.855Z,99701.44
2023-02-23T22:36:08.010Z,99697.31
2023-02-23T22:38:35.896Z,99702.03
2023-02-23T22:41:05.308Z,99701.16
2023-02-23T22:43:34.163Z,99701.72
2023-02-23T22:46:01.887Z,99697.53
2023-02-23T22:48:29.597Z,99704.47
2023-02-23T22:50:59.546Z,99698.91
2023-02-23T22:53:27.634Z,99701.75
2023-02-23T22:55:56.660Z,99708.03
2023-02-23T22:58:26.179Z,99704.22
2023-02-23T23:01:04.023Z,99710.38
2023-02-23T23:03:35.951Z,99702.16
2023-02-23T23:06:08.408Z,99696.75
2023-02-23T23:08:38.676Z,99694.31
2023-02-23T23:11:09.552Z,99699.75
2023-02-23T23:13:40.862Z,99696.25
2023-02-23T23:16:16.853Z,99701.75
2023-02-23T23:18:55.093Z,99688.66
2023-02-23T23:21:27.936Z,99692.28
2023-02-23T23:23:57.172Z,99681.00
2023-02-23T23:26:26.309Z,99690.75
2023-02-23T23:28:55.734Z,99686.72
2023-02-23T23:31:27.964Z,99680.25
2023-02-23T23:33:59.885Z,99693.44
2023-02-23T23:36:31.907Z,99680.00
2023-02-23T23:39:00.024Z,99683.97
2023-02-23T23:41:29.310Z,99675.28
2023-02-23T23:43:59.024Z,99686.38
2023-02-23T23:46:28.267Z,99681.38
2023-02-23T23:48:58.468Z,99685.78
2023-02-23T23:51:28.398Z,99682.25
2023-02-23T23:53:59.330Z,99679.16
2023-02-23T23:56:30.415Z,99675.50
2023-02-23T23:58:59.211Z,99671.84
